This is the latest recevied weather packets stored in our database for station/object WA6ODQ-13. If no packets are shown the sender has not sent any weather packets the latest 1 day(s).
| Time | Temp. | Humidity | Pressure | Rain* | Wind** | Luminosity | Snow |
|---|---|---|---|---|---|---|---|
| 1777986008 | 11.11° C | 99% | 1011.6 hPa | 0 mm | 0.45 m/s, 247° | 0 W/m² | - |
| 1777985704 | 11.11° C | 99% | 1011.7 hPa | 0 mm | 0.45 m/s, 225° | 0 W/m² | - |
| 1777985400 | 11.11° C | 99% | 1011.8 hPa | 0 mm | 0 m/s | 0 W/m² | - |
| 1777985097 | 11.11° C | 99% | 1011.8 hPa | 0 mm | 0.45 m/s, 180° | 0 W/m² | - |
| 1777984793 | 11.11° C | 99% | 1011.9 hPa | 0 mm | 0.45 m/s, 174° | 0 W/m² | - |
| 1777984490 | 11.11° C | 99% | 1011.8 hPa | 0 mm | 0.45 m/s, 214° | 0 W/m² | - |
| 1777984186 | 11.11° C | 99% | 1011.8 hPa | 0 mm | 0.89 m/s, 193° | 0 W/m² | - |
| 1777983883 | 11.11° C | 99% | 1011.6 hPa | 0 mm | 0.89 m/s, 171° | 0 W/m² | - |
| 1777983580 | 11.11° C | 99% | 1011.5 hPa | 0 mm | 0.89 m/s, 169° | 0 W/m² | - |
| 1777983277 | 11.11° C | 99% | 1011.6 hPa | 0 mm | 1.34 m/s, 208° | 0 W/m² | - |
| 1777982973 | 11.11° C | 99% | 1011.7 hPa | 0 mm | 0.89 m/s, 268° | 0 W/m² | - |
| 1777982670 | 11.11° C | 99% | 1011.7 hPa | 0 mm | 0.89 m/s, 171° | 0 W/m² | - |
| 1777982369 | 11.11° C | 99% | 1011.9 hPa | 0 mm | 0.89 m/s, 243° | 0 W/m² | - |
| 1777982065 | 11.11° C | 99% | 1012 hPa | 0 mm | 1.79 m/s, 178° | 0 W/m² | - |
| 1777981764 | 11.11° C | 99% | 1011.9 hPa | 0 mm | 0.89 m/s, 222° | 0 W/m² | - |
| 1777981459 | 11.11° C | 99% | 1011.8 hPa | 0 mm | 0.89 m/s, 213° | 0 W/m² | - |
| 1777981156 | 11.11° C | 99% | 1011.9 hPa | 0 mm | 0.45 m/s, 216° | 0 W/m² | - |
| 1777980853 | 11.11° C | 99% | 1011.9 hPa | 0 mm | 0.89 m/s, 179° | 0 W/m² | - |
| 1777980548 | 11.11° C | 99% | 1012 hPa | 0 mm | 1.34 m/s, 164° | 0 W/m² | - |
| 1777980246 | 11.11° C | 99% | 1011.9 hPa | 0 mm | 0.89 m/s, 221° | 0 W/m² | - |
| 1777979942 | 11.11° C | 99% | 1011.9 hPa | 0 mm | 1.34 m/s, 219° | 0 W/m² | - |
| 1777979643 | 11.11° C | 99% | 1011.8 hPa | 0 mm | 0.45 m/s, 266° | 0 W/m² | - |
| 1777979333 | 11.11° C | 99% | 1012 hPa | 0 mm | 1.79 m/s, 190° | 0 W/m² | - |
| 1777979031 | 11.11° C | 99% | 1012.1 hPa | 0 mm | 1.34 m/s, 180° | 0 W/m² | - |
| 1777978727 | 11.11° C | 99% | 1011.8 hPa | 0 mm | 1.34 m/s, 187° | 0 W/m² | - |
* Rain latest hour (hover to see other rain measurements)
** Current wind speed in m/s (hover to see current wind gust speed)